createdAt,value
2022-08-26T00:00:41.039Z,4.70
2022-08-26T00:01:41.033Z,4.90
2022-08-26T00:02:41.029Z,5.30
2022-08-26T00:03:41.052Z,4.90
2022-08-26T00:04:40.984Z,4.90
2022-08-26T00:05:40.976Z,4.20
2022-08-26T00:06:42.505Z,5.00
2022-08-26T00:07:40.958Z,4.70
2022-08-26T00:08:40.935Z,4.80
2022-08-26T00:09:40.938Z,5.00
2022-08-26T00:10:40.919Z,4.80
2022-08-26T00:11:40.961Z,5.50
2022-08-26T00:12:40.893Z,4.60
2022-08-26T00:13:40.890Z,4.80
2022-08-26T00:14:40.888Z,4.70
2022-08-26T00:15:40.890Z,4.80
2022-08-26T00:16:47.554Z,5.00
2022-08-26T00:17:40.858Z,5.50
2022-08-26T00:18:40.870Z,5.20
2022-08-26T00:19:40.826Z,5.60
2022-08-26T00:20:40.820Z,5.40
2022-08-26T00:21:40.820Z,5.20
2022-08-26T00:22:40.796Z,4.80
2022-08-26T00:23:40.785Z,5.10
2022-08-26T00:24:40.770Z,5.50
2022-08-26T00:25:42.504Z,5.00
2022-08-26T00:26:41.474Z,4.90
2022-08-26T00:27:40.738Z,4.60
2022-08-26T00:28:40.720Z,4.80
2022-08-26T00:29:40.724Z,5.00
2022-08-26T00:30:40.705Z,4.60
2022-08-26T00:31:40.863Z,5.20
2022-08-26T00:32:40.676Z,5.10
2022-08-26T00:33:40.675Z,4.60
2022-08-26T00:34:40.656Z,4.80
2022-08-26T00:35:40.653Z,4.10
2022-08-26T00:36:40.936Z,4.70
2022-08-26T00:37:40.626Z,5.30
2022-08-26T00:38:40.611Z,5.40
2022-08-26T00:39:40.607Z,4.90
2022-08-26T00:40:40.586Z,5.70
2022-08-26T00:41:40.594Z,5.10
2022-08-26T00:42:40.570Z,5.40
2022-08-26T00:43:46.444Z,5.30
2022-08-26T00:44:40.549Z,5.00
2022-08-26T00:45:40.601Z,5.70
2022-08-26T00:46:46.431Z,4.90
2022-08-26T00:47:40.522Z,5.70
2022-08-26T00:48:40.497Z,5.00
2022-08-26T00:49:40.501Z,5.30
2022-08-26T00:50:40.489Z,4.80
2022-08-26T00:51:40.500Z,4.80
2022-08-26T00:52:40.460Z,4.80
2022-08-26T00:53:41.419Z,5.50
2022-08-26T00:54:40.439Z,5.10
2022-08-26T00:55:40.424Z,4.80
2022-08-26T00:56:40.436Z,4.60
2022-08-26T00:57:40.416Z,5.30
2022-08-26T00:58:40.405Z,5.10
2022-08-26T00:59:40.387Z,5.10
2022-08-26T01:00:40.404Z,5.70
2022-08-26T01:01:40.377Z,5.00
2022-08-26T01:02:40.405Z,5.20
2022-08-26T01:03:40.350Z,5.40
2022-08-26T01:04:40.325Z,5.30
2022-08-26T01:05:40.318Z,5.10
2022-08-26T01:06:40.324Z,5.50
2022-08-26T01:07:40.298Z,5.40
2022-08-26T01:08:40.280Z,5.30
2022-08-26T01:09:40.273Z,4.80
2022-08-26T01:10:40.257Z,5.40
2022-08-26T01:11:40.276Z,4.70
2022-08-26T01:12:40.421Z,5.40
2022-08-26T01:13:40.240Z,5.50
2022-08-26T01:14:40.218Z,5.20
2022-08-26T01:15:40.207Z,5.70
2022-08-26T01:16:40.237Z,4.80
2022-08-26T01:17:40.186Z,5.20
2022-08-26T01:18:40.173Z,5.10
2022-08-26T01:19:40.166Z,5.30
2022-08-26T01:20:40.145Z,4.70
2022-08-26T01:21:40.618Z,5.60
2022-08-26T01:22:40.130Z,5.50
2022-08-26T01:23:40.124Z,4.90
2022-08-26T01:24:40.105Z,5.20
2022-08-26T01:25:40.100Z,5.30
2022-08-26T01:26:40.087Z,5.80
2022-08-26T01:27:40.088Z,4.60
2022-08-26T01:28:40.063Z,5.30
2022-08-26T01:29:40.059Z,5.00
2022-08-26T01:30:40.036Z,5.20
2022-08-26T01:31:40.126Z,5.10
2022-08-26T01:32:40.038Z,5.50
2022-08-26T01:33:42.434Z,4.90
2022-08-26T01:34:40.004Z,4.90
2022-08-26T01:35:39.987Z,4.80
2022-08-26T01:36:39.981Z,4.80
2022-08-26T01:37:40.490Z,6.20
2022-08-26T01:38:39.960Z,5.40
2022-08-26T01:39:39.954Z,5.20
2022-08-26T01:40:39.926Z,5.20
2022-08-26T01:41:39.927Z,5.80
2022-08-26T01:42:39.934Z,5.70
2022-08-26T01:43:39.907Z,4.70
2022-08-26T01:44:39.892Z,5.10
2022-08-26T01:45:39.893Z,5.30
2022-08-26T01:46:39.874Z,6.20
2022-08-26T01:47:39.881Z,5.30
2022-08-26T01:48:39.851Z,5.40
2022-08-26T01:49:39.838Z,5.10
2022-08-26T01:50:39.826Z,6.20
2022-08-26T01:51:39.812Z,5.30
2022-08-26T01:52:39.823Z,4.80
2022-08-26T01:53:39.797Z,4.90
2022-08-26T01:54:39.784Z,5.40
2022-08-26T01:55:39.776Z,5.10
2022-08-26T01:56:39.756Z,5.60
2022-08-26T01:57:39.764Z,5.50
2022-08-26T01:58:39.733Z,5.40
2022-08-26T01:59:39.728Z,5.10
2022-08-26T02:00:39.764Z,4.90
2022-08-26T02:01:39.706Z,5.10
2022-08-26T02:02:39.706Z,5.50
2022-08-26T02:03:39.718Z,5.70
2022-08-26T02:04:39.705Z,5.40
2022-08-26T02:05:39.653Z,5.60
2022-08-26T02:06:39.646Z,4.70
2022-08-26T02:07:39.657Z,6.00
2022-08-26T02:08:39.626Z,6.20
2022-08-26T02:09:41.394Z,5.10
2022-08-26T02:10:39.601Z,5.90
2022-08-26T02:11:39.601Z,5.50
2022-08-26T02:12:39.596Z,5.70
2022-08-26T02:13:39.573Z,4.90
2022-08-26T02:14:43.628Z,5.40
2022-08-26T02:15:39.549Z,5.00
2022-08-26T02:16:39.569Z,5.50
2022-08-26T02:17:39.554Z,5.60
2022-08-26T02:18:39.517Z,5.70
2022-08-26T02:19:39.509Z,5.30
2022-08-26T02:20:39.491Z,5.50
2022-08-26T02:21:39.486Z,5.10
2022-08-26T02:22:39.497Z,5.60
2022-08-26T02:23:39.515Z,4.90
2022-08-26T02:24:39.446Z,5.20
2022-08-26T02:25:39.430Z,5.30
2022-08-26T02:26:39.432Z,4.90
2022-08-26T02:27:39.442Z,5.40
2022-08-26T02:28:39.411Z,5.30
2022-08-26T02:29:39.398Z,5.60
2022-08-26T02:30:39.392Z,5.50
2022-08-26T02:31:39.408Z,5.60
2022-08-26T02:32:40.158Z,5.10
2022-08-26T02:33:43.185Z,5.20
2022-08-26T02:34:39.345Z,5.00
2022-08-26T02:35:39.331Z,5.40
2022-08-26T02:36:39.317Z,5.50
2022-08-26T02:37:39.327Z,5.90
2022-08-26T02:38:39.305Z,5.60
2022-08-26T02:39:39.282Z,5.30
2022-08-26T02:40:39.281Z,5.60
2022-08-26T02:41:44.101Z,6.20
2022-08-26T02:42:39.274Z,5.00
2022-08-26T02:43:39.246Z,5.50
2022-08-26T02:44:39.235Z,5.80
2022-08-26T02:45:39.223Z,4.60
2022-08-26T02:46:39.252Z,5.80
2022-08-26T02:47:39.221Z,5.10
2022-08-26T02:48:39.186Z,5.10
2022-08-26T02:49:39.176Z,5.60
2022-08-26T02:50:39.169Z,5.50
2022-08-26T02:51:39.158Z,5.10
2022-08-26T02:52:39.163Z,5.50
2022-08-26T02:53:39.135Z,5.70
2022-08-26T02:54:39.118Z,5.50
2022-08-26T02:55:39.119Z,4.60
2022-08-26T02:56:39.098Z,5.60
2022-08-26T02:57:39.105Z,5.60
2022-08-26T02:58:39.082Z,5.70
2022-08-26T02:59:39.063Z,5.20
2022-08-26T03:00:39.103Z,5.10
2022-08-26T03:01:39.084Z,5.50
2022-08-26T03:02:39.052Z,5.20
2022-08-26T03:03:39.022Z,5.40
2022-08-26T03:04:39.016Z,5.20
2022-08-26T03:05:39.008Z,5.50
2022-08-26T03:06:38.994Z,5.10
2022-08-26T03:07:39.002Z,6.30
2022-08-26T03:08:38.968Z,5.60
2022-08-26T03:09:38.956Z,5.70
2022-08-26T03:10:38.938Z,6.00
2022-08-26T03:11:38.938Z,5.30
2022-08-26T03:12:38.922Z,5.20
2022-08-26T03:13:38.931Z,5.00
2022-08-26T03:14:38.907Z,5.80
2022-08-26T03:15:38.896Z,5.40
2022-08-26T03:16:38.875Z,5.20
2022-08-26T03:17:38.875Z,5.80
2022-08-26T03:18:38.869Z,5.40
2022-08-26T03:19:38.848Z,4.70
2022-08-26T03:20:38.847Z,5.50
2022-08-26T03:21:38.821Z,5.30
2022-08-26T03:22:38.812Z,5.20
2022-08-26T03:23:38.819Z,5.30
2022-08-26T03:24:38.790Z,5.50
2022-08-26T03:25:38.794Z,5.50
2022-08-26T03:26:38.767Z,5.80
2022-08-26T03:27:39.352Z,5.30
2022-08-26T03:28:38.767Z,5.30
2022-08-26T03:29:38.743Z,5.60
2022-08-26T03:30:46.884Z,5.10
2022-08-26T03:31:38.751Z,5.80
2022-08-26T03:32:38.736Z,5.80
2022-08-26T03:33:38.713Z,5.30
2022-08-26T03:34:38.764Z,5.30
2022-08-26T03:35:38.681Z,5.60
2022-08-26T03:36:39.167Z,5.30
2022-08-26T03:37:38.713Z,5.60
2022-08-26T03:38:38.710Z,6.10
2022-08-26T03:39:38.636Z,6.20
2022-08-26T03:40:38.631Z,5.30
2022-08-26T03:41:38.616Z,5.10
2022-08-26T03:42:38.608Z,5.50
2022-08-26T03:43:38.603Z,5.40
2022-08-26T03:44:42.201Z,5.10
2022-08-26T03:45:38.593Z,5.30
2022-08-26T03:46:38.632Z,5.50
2022-08-26T03:47:38.617Z,4.80
2022-08-26T03:48:38.612Z,5.90
2022-08-26T03:49:38.535Z,5.40
2022-08-26T03:50:38.518Z,5.60
2022-08-26T03:51:38.925Z,5.40
2022-08-26T03:52:43.038Z,5.30
2022-08-26T03:53:38.526Z,5.90
2022-08-26T03:54:38.475Z,5.10
2022-08-26T03:55:38.461Z,4.80
2022-08-26T03:56:38.461Z,5.30
2022-08-26T03:57:38.507Z,5.70
2022-08-26T03:58:38.457Z,5.40
2022-08-26T03:59:38.464Z,5.30
2022-08-26T04:00:38.413Z,5.20
2022-08-26T04:01:38.457Z,5.10
2022-08-26T04:02:38.430Z,5.80
2022-08-26T04:03:38.378Z,5.60
2022-08-26T04:04:38.366Z,5.40
2022-08-26T04:05:38.348Z,5.20
2022-08-26T04:06:38.325Z,5.10
2022-08-26T04:07:38.321Z,5.60
2022-08-26T04:08:38.333Z,5.50
2022-08-26T04:09:38.314Z,5.40
2022-08-26T04:10:38.303Z,5.20
2022-08-26T04:11:39.262Z,5.90
2022-08-26T04:12:38.273Z,4.80
2022-08-26T04:13:38.280Z,5.10
2022-08-26T04:14:38.245Z,5.20
2022-08-26T04:15:38.245Z,5.30
2022-08-26T04:16:38.227Z,4.90
2022-08-26T04:17:38.218Z,5.30
2022-08-26T04:18:38.236Z,5.40
2022-08-26T04:19:38.226Z,5.80
2022-08-26T04:20:38.177Z,5.20
2022-08-26T04:21:38.168Z,5.60
2022-08-26T04:22:38.149Z,5.50
2022-08-26T04:23:47.276Z,5.10
2022-08-26T04:24:38.142Z,4.70
2022-08-26T04:25:38.119Z,6.40
2022-08-26T04:26:39.550Z,5.40
2022-08-26T04:27:38.113Z,5.10
2022-08-26T04:28:38.121Z,5.30
2022-08-26T04:29:38.079Z,5.10
2022-08-26T04:30:38.076Z,5.10
2022-08-26T04:31:38.115Z,4.80
2022-08-26T04:32:38.075Z,5.00
2022-08-26T04:33:41.618Z,5.20
2022-08-26T04:34:38.051Z,4.90
2022-08-26T04:35:38.016Z,4.90
2022-08-26T04:36:38.003Z,5.30
2022-08-26T04:37:37.996Z,5.50
2022-08-26T04:38:37.976Z,5.80
2022-08-26T04:39:37.994Z,4.90
2022-08-26T04:40:37.955Z,4.80
2022-08-26T04:41:37.956Z,5.20
2022-08-26T04:42:37.936Z,5.60
2022-08-26T04:43:37.943Z,5.20
2022-08-26T04:44:37.926Z,5.40
2022-08-26T04:45:37.898Z,5.80
2022-08-26T04:46:39.802Z,5.10
2022-08-26T04:47:37.899Z,4.90
2022-08-26T04:48:37.873Z,5.30
2022-08-26T04:49:37.876Z,4.80
2022-08-26T04:50:37.853Z,6.00
2022-08-26T04:51:37.843Z,5.80
2022-08-26T04:52:37.850Z,5.40
2022-08-26T04:53:37.817Z,5.20
2022-08-26T04:54:37.830Z,4.90
2022-08-26T04:55:38.705Z,5.00
2022-08-26T04:56:37.782Z,4.80
2022-08-26T04:57:38.422Z,5.90
2022-08-26T04:58:37.772Z,5.40
2022-08-26T04:59:39.479Z,4.50
2022-08-26T05:00:37.734Z,5.00
2022-08-26T05:01:39.478Z,4.60
2022-08-26T05:02:37.726Z,5.30
2022-08-26T05:03:37.741Z,5.80
2022-08-26T05:04:37.708Z,5.20
2022-08-26T05:05:37.689Z,5.20
2022-08-26T05:06:37.697Z,5.00
2022-08-26T05:07:37.730Z,5.40
2022-08-26T05:08:37.650Z,5.50
2022-08-26T05:09:37.668Z,5.00
2022-08-26T05:10:37.630Z,5.20
2022-08-26T05:11:37.621Z,5.40
2022-08-26T05:12:37.620Z,5.10
2022-08-26T05:13:37.596Z,5.30
2022-08-26T05:14:37.604Z,5.40
2022-08-26T05:15:37.598Z,4.50
2022-08-26T05:16:37.565Z,4.90
2022-08-26T05:17:37.567Z,5.30
2022-08-26T05:18:37.549Z,5.20
2022-08-26T05:19:37.567Z,5.60
2022-08-26T05:20:37.531Z,5.90
2022-08-26T05:21:37.558Z,5.50
2022-08-26T05:22:37.510Z,5.60
2022-08-26T05:23:37.497Z,5.80
2022-08-26T05:24:37.519Z,5.70
2022-08-26T05:25:37.493Z,5.40
2022-08-26T05:26:37.459Z,5.40
2022-08-26T05:27:37.457Z,5.40
2022-08-26T05:28:37.458Z,5.30
2022-08-26T05:29:37.459Z,5.10
2022-08-26T05:30:37.441Z,5.80
2022-08-26T05:31:37.440Z,5.90
2022-08-26T05:32:37.414Z,5.20
2022-08-26T05:33:37.420Z,5.10
2022-08-26T05:34:37.398Z,4.80
2022-08-26T05:35:37.352Z,5.50
2022-08-26T05:36:37.937Z,5.00
2022-08-26T05:37:37.346Z,5.30
2022-08-26T05:38:37.380Z,4.90
2022-08-26T05:39:37.337Z,4.50
2022-08-26T05:40:37.394Z,4.80
2022-08-26T05:41:38.537Z,4.70
2022-08-26T05:42:37.294Z,5.40
2022-08-26T05:43:37.284Z,4.90
2022-08-26T05:44:55.487Z,5.60
2022-08-26T05:45:37.285Z,5.30
2022-08-26T05:46:37.329Z,5.50
2022-08-26T05:47:37.227Z,5.40
2022-08-26T05:48:37.236Z,5.20
2022-08-26T05:49:37.244Z,5.30
2022-08-26T05:50:37.228Z,4.50
2022-08-26T05:51:37.184Z,5.50
2022-08-26T05:52:37.188Z,5.70
2022-08-26T05:53:37.193Z,5.10
2022-08-26T05:54:37.200Z,5.20
2022-08-26T05:55:37.171Z,5.10
2022-08-26T05:56:37.124Z,5.60
2022-08-26T05:57:42.161Z,4.70
2022-08-26T05:58:37.142Z,4.50
2022-08-26T05:59:37.120Z,4.50
2022-08-26T06:00:37.098Z,5.10
2022-08-26T06:01:37.100Z,5.20
2022-08-26T06:02:37.093Z,4.70
2022-08-26T06:03:37.071Z,5.90
2022-08-26T06:04:37.049Z,5.90
2022-08-26T06:05:39.238Z,4.90
2022-08-26T06:06:37.016Z,5.30
2022-08-26T06:07:37.030Z,4.80
2022-08-26T06:08:36.998Z,5.20
2022-08-26T06:09:37.010Z,4.90
2022-08-26T06:10:36.989Z,5.00
2022-08-26T06:11:36.986Z,4.70
2022-08-26T06:12:36.946Z,4.90
2022-08-26T06:13:36.989Z,4.80
2022-08-26T06:14:36.954Z,4.40
2022-08-26T06:15:36.973Z,5.20
2022-08-26T06:16:36.943Z,4.70
2022-08-26T06:17:36.924Z,5.10
2022-08-26T06:18:36.912Z,5.00
2022-08-26T06:19:36.918Z,5.50
2022-08-26T06:20:36.907Z,4.90
2022-08-26T06:21:36.855Z,5.20
2022-08-26T06:22:36.847Z,5.60
2022-08-26T06:23:36.842Z,5.10
2022-08-26T06:24:36.828Z,5.20
2022-08-26T06:25:36.820Z,5.00
2022-08-26T06:26:36.803Z,4.70
2022-08-26T06:27:36.828Z,5.10
2022-08-26T06:28:36.778Z,5.80
2022-08-26T06:29:36.803Z,5.80
2022-08-26T06:30:36.816Z,5.30
2022-08-26T06:31:36.750Z,5.40
2022-08-26T06:32:36.876Z,6.40
2022-08-26T06:33:36.723Z,6.20
2022-08-26T06:34:36.728Z,4.50
2022-08-26T06:35:36.708Z,5.80
2022-08-26T06:36:36.680Z,5.70
2022-08-26T06:37:36.691Z,4.90
2022-08-26T06:38:36.697Z,5.40
2022-08-26T06:39:40.221Z,6.20
2022-08-26T06:40:36.678Z,5.80
2022-08-26T06:41:40.184Z,6.30
2022-08-26T06:42:36.632Z,5.70
2022-08-26T06:43:36.622Z,5.50
2022-08-26T06:44:36.622Z,5.30
2022-08-26T06:45:36.596Z,4.80
2022-08-26T06:46:36.700Z,5.30
2022-08-26T06:47:36.583Z,5.30
2022-08-26T06:48:36.552Z,5.20
2022-08-26T06:49:36.586Z,4.90
2022-08-26T06:50:36.577Z,5.40
2022-08-26T06:51:36.561Z,4.80
2022-08-26T06:52:36.530Z,4.80
2022-08-26T06:53:36.532Z,5.30
2022-08-26T06:54:36.559Z,4.70
2022-08-26T06:55:36.484Z,5.00
2022-08-26T06:56:36.481Z,4.90
2022-08-26T06:57:39.668Z,5.10
2022-08-26T06:58:36.473Z,5.00
2022-08-26T06:59:36.499Z,5.00
2022-08-26T07:00:36.427Z,5.40
2022-08-26T07:01:36.452Z,5.30
2022-08-26T07:02:36.468Z,5.40
2022-08-26T07:03:39.509Z,5.10
2022-08-26T07:04:36.397Z,5.30
2022-08-26T07:05:36.380Z,5.30
2022-08-26T07:06:36.361Z,5.30
2022-08-26T07:07:36.362Z,4.90
2022-08-26T07:08:36.342Z,4.90
2022-08-26T07:09:36.364Z,5.80
2022-08-26T07:10:36.329Z,4.80
2022-08-26T07:11:36.356Z,4.70
2022-08-26T07:12:36.292Z,4.30
2022-08-26T07:13:36.298Z,4.70
2022-08-26T07:14:36.282Z,5.20
2022-08-26T07:15:36.325Z,5.30
2022-08-26T07:16:36.261Z,5.40
2022-08-26T07:17:36.257Z,5.20
2022-08-26T07:18:36.228Z,6.00
2022-08-26T07:19:36.245Z,4.80
2022-08-26T07:20:36.226Z,5.50
2022-08-26T07:21:36.210Z,5.20
2022-08-26T07:22:36.178Z,5.40
2022-08-26T07:23:36.175Z,5.00
2022-08-26T07:24:36.189Z,5.70
2022-08-26T07:25:36.173Z,5.30
2022-08-26T07:26:36.141Z,5.10
2022-08-26T07:27:36.141Z,5.40
2022-08-26T07:28:36.116Z,5.80
2022-08-26T07:29:36.119Z,5.60
2022-08-26T07:30:36.154Z,5.60
2022-08-26T07:31:39.169Z,5.80
2022-08-26T07:32:36.099Z,5.50
2022-08-26T07:33:36.065Z,5.70
2022-08-26T07:34:36.091Z,5.60
2022-08-26T07:35:36.051Z,5.50
2022-08-26T07:36:36.027Z,5.50
2022-08-26T07:37:39.098Z,5.80
2022-08-26T07:38:36.007Z,6.30
2022-08-26T07:39:36.017Z,6.00
2022-08-26T07:40:36.031Z,6.00
2022-08-26T07:41:35.986Z,5.60
2022-08-26T07:42:35.993Z,5.50
2022-08-26T07:43:35.953Z,5.70
2022-08-26T07:44:35.951Z,5.60
2022-08-26T07:45:35.944Z,5.60
2022-08-26T07:46:35.926Z,5.80
2022-08-26T07:47:35.916Z,6.30
2022-08-26T07:48:35.904Z,5.90
2022-08-26T07:49:36.005Z,6.20
2022-08-26T07:50:49.318Z,5.90
2022-08-26T07:51:35.877Z,6.30
2022-08-26T07:52:35.854Z,6.20
2022-08-26T07:53:35.862Z,5.80
2022-08-26T07:54:35.856Z,6.00
2022-08-26T07:55:35.837Z,6.40
2022-08-26T07:56:35.816Z,6.40
2022-08-26T07:57:35.798Z,6.90
2022-08-26T07:58:35.788Z,6.20
2022-08-26T07:59:35.828Z,6.60
2022-08-26T08:00:35.770Z,6.80
2022-08-26T08:01:35.863Z,6.30
2022-08-26T08:02:35.754Z,6.10
2022-08-26T08:03:35.736Z,6.00
2022-08-26T08:04:35.805Z,6.80
2022-08-26T08:05:35.836Z,6.80
2022-08-26T08:06:35.698Z,6.00
2022-08-26T08:07:44.161Z,5.90
2022-08-26T08:08:35.697Z,6.60
2022-08-26T08:09:35.688Z,6.20
2022-08-26T08:10:35.659Z,6.90
2022-08-26T08:11:35.677Z,6.60
2022-08-26T08:12:35.634Z,6.40
2022-08-26T08:13:35.628Z,5.90
2022-08-26T08:14:35.628Z,6.10
2022-08-26T08:15:35.651Z,6.30
2022-08-26T08:16:37.265Z,6.00
2022-08-26T08:17:35.585Z,6.60
2022-08-26T08:18:35.591Z,6.20
2022-08-26T08:19:38.979Z,7.10
2022-08-26T08:20:35.556Z,6.40
2022-08-26T08:21:35.548Z,6.50
2022-08-26T08:22:35.546Z,6.30
2022-08-26T08:23:35.538Z,7.20
2022-08-26T08:24:35.517Z,6.30
2022-08-26T08:25:35.504Z,5.70
2022-08-26T08:26:35.482Z,6.30
2022-08-26T08:27:35.502Z,6.50
2022-08-26T08:28:35.467Z,6.30
2022-08-26T08:29:35.466Z,6.50
2022-08-26T08:30:35.445Z,6.00
2022-08-26T08:32:35.417Z,6.90
2022-08-26T08:33:35.410Z,6.30
2022-08-26T08:34:35.474Z,5.50
2022-08-26T08:35:35.377Z,6.00
2022-08-26T08:36:35.910Z,6.90
2022-08-26T08:37:35.413Z,6.60
2022-08-26T08:38:35.344Z,6.70
2022-08-26T08:39:35.361Z,6.50
2022-08-26T08:40:35.370Z,6.10
2022-08-26T08:41:35.322Z,6.50
2022-08-26T08:42:35.307Z,6.90
2022-08-26T08:43:37.625Z,6.40
2022-08-26T08:44:35.313Z,5.90
2022-08-26T08:45:37.093Z,6.00
2022-08-26T08:46:35.343Z,5.80
2022-08-26T08:47:35.256Z,6.50
2022-08-26T08:48:35.266Z,6.60
2022-08-26T08:49:35.266Z,6.90
2022-08-26T08:50:35.231Z,6.00
2022-08-26T08:51:35.228Z,7.30
2022-08-26T08:52:35.210Z,6.20
2022-08-26T08:53:35.186Z,6.30
2022-08-26T08:54:35.195Z,6.60
2022-08-26T08:55:35.185Z,6.30
2022-08-26T08:56:35.159Z,6.60
2022-08-26T08:57:35.157Z,6.10
2022-08-26T08:58:35.153Z,6.20
2022-08-26T08:59:35.161Z,7.10
2022-08-26T09:00:39.137Z,7.10
2022-08-26T09:01:35.268Z,7.10
2022-08-26T09:02:35.156Z,8.10
2022-08-26T09:03:36.097Z,8.10
2022-08-26T09:04:35.111Z,7.50
2022-08-26T09:05:35.116Z,8.00
2022-08-26T09:06:35.058Z,7.30
2022-08-26T09:07:36.668Z,7.60
2022-08-26T09:08:35.124Z,7.20
2022-08-26T09:09:35.046Z,6.90
2022-08-26T09:10:35.155Z,7.20
2022-08-26T09:11:35.055Z,7.40
2022-08-26T09:12:35.039Z,6.40
2022-08-26T09:13:34.997Z,7.10
2022-08-26T09:14:34.990Z,6.60
2022-08-26T09:15:34.994Z,7.10
2022-08-26T09:16:34.994Z,6.60
2022-08-26T09:17:34.941Z,6.90
2022-08-26T09:18:34.920Z,6.80
2022-08-26T09:19:34.915Z,6.50
2022-08-26T09:20:34.952Z,6.40
2022-08-26T09:21:34.890Z,6.60
2022-08-26T09:22:34.934Z,6.60
2022-08-26T09:23:34.872Z,7.30
2022-08-26T09:24:39.556Z,6.70
2022-08-26T09:25:34.863Z,6.00
2022-08-26T09:26:34.865Z,7.20
2022-08-26T09:27:34.855Z,6.40
2022-08-26T09:28:34.814Z,5.80
2022-08-26T09:29:34.846Z,6.30
2022-08-26T09:30:34.840Z,5.60
2022-08-26T09:31:41.348Z,5.70
2022-08-26T09:32:34.773Z,6.60
2022-08-26T09:33:34.753Z,6.20
2022-08-26T09:34:34.746Z,6.40
2022-08-26T09:35:34.728Z,6.30
2022-08-26T09:36:39.174Z,6.00
2022-08-26T09:37:34.747Z,6.00
2022-08-26T09:38:34.687Z,6.60
2022-08-26T09:39:34.704Z,6.00
2022-08-26T09:40:35.327Z,6.00
2022-08-26T09:41:34.689Z,6.00
2022-08-26T09:42:34.668Z,5.30
2022-08-26T09:43:34.651Z,5.30
2022-08-26T09:44:34.642Z,5.00
2022-08-26T09:45:34.665Z,4.90
2022-08-26T09:46:34.729Z,4.10
2022-08-26T09:47:34.608Z,3.70
2022-08-26T09:48:36.154Z,3.70
2022-08-26T09:49:36.291Z,3.30
2022-08-26T09:50:34.568Z,3.10
2022-08-26T09:51:34.562Z,3.70
2022-08-26T09:52:34.552Z,2.90
2022-08-26T09:53:34.541Z,3.50
2022-08-26T09:54:34.527Z,3.10
2022-08-26T09:55:34.515Z,2.10
2022-08-26T09:56:34.515Z,2.40
2022-08-26T09:57:34.508Z,2.00
2022-08-26T09:58:34.475Z,1.90
2022-08-26T09:59:34.469Z,2.30
2022-08-26T10:00:34.453Z,2.10
2022-08-26T10:01:34.553Z,2.70
2022-08-26T10:02:34.436Z,2.50
2022-08-26T10:03:34.445Z,2.50
2022-08-26T10:04:34.480Z,2.30
2022-08-26T10:05:34.404Z,2.40
2022-08-26T10:06:34.393Z,2.50
2022-08-26T10:07:34.394Z,2.30
2022-08-26T10:08:34.383Z,2.60
2022-08-26T10:09:34.362Z,2.40
2022-08-26T10:10:34.350Z,2.90
2022-08-26T10:11:34.346Z,2.70
2022-08-26T10:12:34.323Z,2.70
2022-08-26T10:13:34.316Z,2.80
2022-08-26T10:14:34.361Z,2.80
2022-08-26T10:15:34.296Z,2.80
2022-08-26T10:16:34.335Z,3.00
2022-08-26T10:17:34.268Z,2.70
2022-08-26T10:18:34.705Z,2.50
2022-08-26T10:19:56.210Z,3.00
2022-08-26T10:20:34.254Z,2.90
2022-08-26T10:21:34.222Z,2.80
2022-08-26T10:22:34.210Z,3.10
2022-08-26T10:23:34.207Z,3.10
2022-08-26T10:24:34.192Z,3.00
2022-08-26T10:25:34.199Z,2.70
2022-08-26T10:26:34.172Z,2.90
2022-08-26T10:27:34.164Z,3.00
2022-08-26T10:28:34.159Z,2.70
2022-08-26T10:29:34.146Z,2.80
2022-08-26T10:30:34.138Z,2.90
2022-08-26T10:31:40.108Z,3.00
2022-08-26T10:32:34.113Z,3.40
2022-08-26T10:33:34.114Z,3.70
2022-08-26T10:34:34.091Z,3.80
2022-08-26T10:35:34.085Z,3.20
2022-08-26T10:36:39.323Z,3.60
2022-08-26T10:37:34.061Z,4.10
2022-08-26T10:38:34.039Z,4.30
2022-08-26T10:39:34.174Z,4.30
2022-08-26T10:40:34.089Z,4.20
2022-08-26T10:41:34.017Z,4.40
2022-08-26T10:42:34.013Z,4.50
2022-08-26T10:43:33.992Z,4.30
2022-08-26T10:44:33.996Z,3.70
2022-08-26T10:45:33.991Z,4.60
2022-08-26T10:46:33.953Z,4.10
2022-08-26T10:47:33.969Z,4.60
2022-08-26T10:48:35.867Z,5.00
2022-08-26T10:49:33.924Z,5.20
2022-08-26T10:50:33.911Z,5.20
2022-08-26T10:51:33.919Z,6.30
2022-08-26T10:52:33.910Z,5.00
2022-08-26T10:53:33.883Z,4.80
2022-08-26T10:54:33.874Z,5.60
2022-08-26T10:55:34.719Z,5.20
2022-08-26T10:56:33.846Z,5.10
2022-08-26T10:57:33.855Z,4.60
2022-08-26T10:58:33.826Z,5.10
2022-08-26T10:59:33.817Z,5.30
2022-08-26T11:00:33.801Z,5.00
2022-08-26T11:01:33.850Z,5.00
2022-08-26T11:02:33.787Z,5.60
2022-08-26T11:03:33.795Z,5.80
2022-08-26T11:04:34.983Z,5.50
2022-08-26T11:05:33.752Z,5.40
2022-08-26T11:06:33.739Z,5.00
2022-08-26T11:07:33.736Z,5.60
2022-08-26T11:08:33.736Z,4.80
2022-08-26T11:09:33.722Z,5.40
2022-08-26T11:10:33.696Z,5.30
2022-08-26T11:11:33.690Z,5.40
2022-08-26T11:12:33.674Z,5.00
2022-08-26T11:13:33.667Z,5.50
2022-08-26T11:14:46.068Z,5.00
2022-08-26T11:15:33.661Z,5.90
2022-08-26T11:16:34.551Z,5.60
2022-08-26T11:17:33.630Z,5.50
2022-08-26T11:18:33.610Z,6.10
2022-08-26T11:19:50.892Z,5.90
2022-08-26T11:20:33.599Z,5.90
2022-08-26T11:21:33.594Z,6.10
2022-08-26T11:22:33.577Z,5.80
2022-08-26T11:23:33.567Z,6.60
2022-08-26T11:24:33.549Z,5.50
2022-08-26T11:25:33.560Z,5.30
2022-08-26T11:26:37.799Z,5.60
2022-08-26T11:27:33.524Z,5.80
2022-08-26T11:28:33.510Z,5.80
2022-08-26T11:29:33.495Z,6.10
2022-08-26T11:30:33.513Z,5.60
2022-08-26T11:31:33.558Z,6.90
2022-08-26T11:32:33.468Z,6.20
2022-08-26T11:33:33.453Z,6.10
2022-08-26T11:34:33.448Z,6.30
2022-08-26T11:35:33.449Z,6.10
2022-08-26T11:36:33.461Z,6.30
2022-08-26T11:37:33.417Z,6.20
2022-08-26T11:38:33.403Z,5.30
2022-08-26T11:39:36.787Z,5.90
2022-08-26T11:40:33.408Z,6.70
2022-08-26T11:41:33.373Z,5.70
2022-08-26T11:42:33.363Z,6.70
2022-08-26T11:43:33.359Z,5.60
2022-08-26T11:44:33.343Z,6.40
2022-08-26T11:45:33.340Z,5.60
2022-08-26T11:46:33.335Z,5.40
2022-08-26T11:47:33.305Z,5.50
2022-08-26T11:48:33.298Z,5.20
2022-08-26T11:49:33.395Z,5.30
2022-08-26T11:50:33.284Z,5.90
2022-08-26T11:51:35.908Z,5.60
2022-08-26T11:52:33.257Z,6.00
2022-08-26T11:53:33.339Z,5.70
2022-08-26T11:54:35.821Z,5.60
2022-08-26T11:55:33.229Z,5.20
2022-08-26T11:56:33.250Z,5.60
2022-08-26T11:57:33.197Z,5.40
2022-08-26T11:58:33.198Z,4.90
2022-08-26T12:00:33.733Z,5.80
2022-08-26T12:01:33.180Z,5.30
2022-08-26T12:02:33.153Z,5.80
2022-08-26T12:03:33.250Z,5.90
2022-08-26T12:04:33.280Z,5.50
2022-08-26T12:05:33.150Z,5.90
2022-08-26T12:06:33.538Z,5.40
2022-08-26T12:07:33.117Z,5.10
2022-08-26T12:08:33.092Z,5.40
2022-08-26T12:09:33.080Z,4.90
2022-08-26T12:10:33.057Z,5.20
2022-08-26T12:11:33.058Z,5.40
2022-08-26T12:12:35.203Z,5.00
2022-08-26T12:13:33.046Z,5.60
2022-08-26T12:14:33.022Z,5.30
2022-08-26T12:15:33.019Z,5.10
2022-08-26T12:16:33.070Z,6.00
2022-08-26T12:17:33.016Z,5.00
2022-08-26T12:18:32.984Z,5.60
2022-08-26T12:19:33.253Z,5.80
2022-08-26T12:20:32.969Z,5.10
2022-08-26T12:21:34.907Z,4.70
2022-08-26T12:22:32.936Z,5.30
2022-08-26T12:23:32.942Z,5.90
2022-08-26T12:24:32.924Z,5.60
2022-08-26T12:25:36.096Z,5.20
2022-08-26T12:26:32.899Z,5.30
2022-08-26T12:27:32.887Z,5.00
2022-08-26T12:28:32.889Z,5.20
2022-08-26T12:29:32.872Z,5.70
2022-08-26T12:30:32.866Z,4.70
2022-08-26T12:31:32.955Z,5.50
2022-08-26T12:32:32.868Z,4.90
2022-08-26T12:33:32.870Z,5.10
2022-08-26T12:34:32.841Z,5.20
2022-08-26T12:35:32.868Z,5.70
2022-08-26T12:36:32.883Z,5.00
2022-08-26T12:37:32.813Z,4.80
2022-08-26T12:38:32.813Z,5.00
2022-08-26T12:39:32.784Z,5.40
2022-08-26T12:40:32.841Z,5.00
2022-08-26T12:41:32.780Z,5.50
2022-08-26T12:42:32.758Z,5.40
2022-08-26T12:43:32.760Z,5.50
2022-08-26T12:44:32.728Z,5.10
2022-08-26T12:45:32.774Z,5.30
2022-08-26T12:46:32.703Z,5.70
2022-08-26T12:47:42.114Z,5.10
2022-08-26T12:48:32.701Z,6.00
2022-08-26T12:49:32.692Z,4.60
2022-08-26T12:50:32.677Z,5.50
2022-08-26T12:51:32.668Z,5.10
2022-08-26T12:52:32.647Z,5.10
2022-08-26T12:53:32.642Z,5.10
2022-08-26T12:54:32.651Z,5.40
2022-08-26T12:55:32.619Z,5.30
2022-08-26T12:56:32.612Z,5.20
2022-08-26T12:57:32.599Z,5.40
2022-08-26T12:58:32.585Z,5.50
2022-08-26T12:59:32.578Z,5.70
2022-08-26T13:00:32.729Z,5.70
2022-08-26T13:01:32.601Z,5.90
2022-08-26T13:02:32.542Z,5.30
2022-08-26T13:03:32.532Z,5.60
2022-08-26T13:04:32.514Z,6.10
2022-08-26T13:05:32.512Z,5.30
2022-08-26T13:06:32.524Z,6.10
2022-08-26T13:07:32.489Z,5.40
2022-08-26T13:08:32.480Z,5.30
2022-08-26T13:09:32.467Z,5.40
2022-08-26T13:10:32.578Z,5.80
2022-08-26T13:11:32.468Z,6.00
2022-08-26T13:12:32.436Z,5.50
2022-08-26T13:13:32.435Z,6.20
2022-08-26T13:14:32.414Z,6.20
2022-08-26T13:15:32.404Z,5.90
2022-08-26T13:16:32.461Z,5.60
2022-08-26T13:17:32.401Z,5.60
2022-08-26T13:18:32.368Z,6.30
2022-08-26T13:19:32.358Z,5.60
2022-08-26T13:20:32.374Z,6.10